createdAt,value
2018-10-16T00:00:10.824Z,1013.08
2018-10-16T00:01:16.356Z,1013.09
2018-10-16T00:02:21.893Z,1013.07
2018-10-16T00:03:27.431Z,1013.07
2018-10-16T00:04:32.972Z,1013.10
2018-10-16T00:05:38.510Z,1013.11
2018-10-16T00:06:44.053Z,1013.13
2018-10-16T00:07:49.589Z,1013.14
2018-10-16T00:08:55.120Z,1013.15
2018-10-16T00:10:00.664Z,1013.15
2018-10-16T00:11:06.201Z,1013.12
2018-10-16T00:12:11.736Z,1013.17
2018-10-16T00:13:17.276Z,1013.18
2018-10-16T00:14:22.815Z,1013.18
2018-10-16T00:15:28.348Z,1013.16
2018-10-16T00:16:33.889Z,1013.20
2018-10-16T00:17:39.426Z,1013.17
2018-10-16T00:18:44.968Z,1013.15
2018-10-16T00:19:50.505Z,1013.13
2018-10-16T00:20:56.042Z,1013.13
2018-10-16T00:22:01.579Z,1013.13
2018-10-16T00:23:07.119Z,1013.13
2018-10-16T00:24:12.657Z,1013.14
2018-10-16T00:25:18.199Z,1013.14
2018-10-16T00:26:23.737Z,1013.16
2018-10-16T00:27:29.275Z,1013.16
2018-10-16T00:28:34.805Z,1013.19
2018-10-16T00:29:40.346Z,1013.17
2018-10-16T00:30:45.882Z,1013.22
2018-10-16T00:31:51.421Z,1013.20
2018-10-16T00:32:56.966Z,1013.22
2018-10-16T00:34:02.498Z,1013.16
2018-10-16T00:35:08.039Z,1013.18
2018-10-16T00:36:13.581Z,1013.19
2018-10-16T00:37:19.121Z,1013.18
2018-10-16T00:38:24.653Z,1013.18
2018-10-16T00:39:30.192Z,1013.24
2018-10-16T00:40:35.732Z,1013.21
2018-10-16T00:41:41.274Z,1013.23
2018-10-16T00:42:46.805Z,1013.24
2018-10-16T00:43:52.348Z,1013.15
2018-10-16T00:44:57.883Z,1013.17
2018-10-16T00:46:03.416Z,1013.18
2018-10-16T00:47:08.961Z,1013.23
2018-10-16T00:48:14.495Z,1013.21
2018-10-16T00:49:20.033Z,1013.26
2018-10-16T00:50:25.575Z,1013.22
2018-10-16T00:51:31.110Z,1013.26
2018-10-16T00:52:36.653Z,1013.27
2018-10-16T00:53:42.189Z,1013.27
2018-10-16T00:54:47.762Z,1013.27
2018-10-16T00:55:53.262Z,1013.27
2018-10-16T00:56:58.804Z,1013.25
2018-10-16T00:58:04.337Z,1013.24
2018-10-16T00:59:09.875Z,1013.24
2018-10-16T01:00:15.411Z,1013.28
2018-10-16T01:01:20.953Z,1013.31
2018-10-16T01:02:26.489Z,1013.32
2018-10-16T01:03:32.032Z,1013.31
2018-10-16T01:04:37.564Z,1013.33
2018-10-16T01:05:43.127Z,1013.31
2018-10-16T01:06:48.639Z,1013.35
2018-10-16T01:07:54.187Z,1013.35
2018-10-16T01:08:59.727Z,1013.35
2018-10-16T01:10:05.268Z,1013.36
2018-10-16T01:11:10.795Z,1013.36
2018-10-16T01:12:16.330Z,1013.36
2018-10-16T01:13:21.864Z,1013.33
2018-10-16T01:14:27.405Z,1013.35
2018-10-16T01:15:32.951Z,1013.34
2018-10-16T01:16:38.479Z,1013.35
2018-10-16T01:17:44.021Z,1013.35
2018-10-16T01:18:49.557Z,1013.38
2018-10-16T01:19:55.101Z,1013.34
2018-10-16T01:21:00.637Z,1013.33
2018-10-16T01:22:06.171Z,1013.34
2018-10-16T01:23:11.708Z,1013.36
2018-10-16T01:24:17.248Z,1013.38
2018-10-16T01:25:22.790Z,1013.41
2018-10-16T01:26:28.322Z,1013.38
2018-10-16T01:27:33.862Z,1013.44
2018-10-16T01:28:39.392Z,1013.48
2018-10-16T01:29:44.930Z,1013.52
2018-10-16T01:30:50.472Z,1013.52
2018-10-16T01:31:56.009Z,1013.54
2018-10-16T01:33:01.551Z,1013.56
2018-10-16T01:34:07.090Z,1013.63
2018-10-16T01:35:12.621Z,1013.61
2018-10-16T01:36:18.165Z,1013.61
2018-10-16T01:37:23.697Z,1013.64
2018-10-16T01:38:29.241Z,1013.61
2018-10-16T01:39:34.777Z,1013.64
2018-10-16T01:40:40.313Z,1013.67
2018-10-16T01:41:45.848Z,1013.67
2018-10-16T01:42:51.385Z,1013.68
2018-10-16T01:43:56.932Z,1013.71
2018-10-16T01:45:02.460Z,1013.72
2018-10-16T01:46:08.000Z,1013.73
2018-10-16T01:47:13.536Z,1013.73
2018-10-16T01:48:19.078Z,1013.72
2018-10-16T01:49:24.610Z,1013.75
2018-10-16T01:50:30.154Z,1013.72
2018-10-16T01:51:35.684Z,1013.74
2018-10-16T01:52:41.223Z,1013.69
2018-10-16T01:53:46.773Z,1013.67
2018-10-16T01:54:52.300Z,1013.72
2018-10-16T01:55:57.835Z,1013.66
2018-10-16T01:57:03.380Z,1013.65
2018-10-16T01:58:08.915Z,1013.64
2018-10-16T01:59:14.454Z,1013.61
2018-10-16T02:00:19.991Z,1013.60
2018-10-16T02:01:25.522Z,1013.65
2018-10-16T02:02:31.099Z,1013.64
2018-10-16T02:03:36.600Z,1013.63
2018-10-16T02:04:42.135Z,1013.68
2018-10-16T02:05:47.676Z,1013.65
2018-10-16T02:06:53.212Z,1013.64
2018-10-16T02:07:58.749Z,1013.63
2018-10-16T02:09:04.290Z,1013.65
2018-10-16T02:10:09.825Z,1013.66
2018-10-16T02:11:15.360Z,1013.68
2018-10-16T02:12:20.904Z,1013.67
2018-10-16T02:13:26.436Z,1013.67
2018-10-16T02:14:32.011Z,1013.66
2018-10-16T02:15:37.520Z,1013.64
2018-10-16T02:16:43.049Z,1013.68
2018-10-16T02:17:48.589Z,1013.67
2018-10-16T02:18:54.126Z,1013.65
2018-10-16T02:19:59.667Z,1013.68
2018-10-16T02:21:05.203Z,1013.65
2018-10-16T02:22:10.738Z,1013.66
2018-10-16T02:23:16.280Z,1013.66
2018-10-16T02:24:21.818Z,1013.64
2018-10-16T02:25:27.351Z,1013.66
2018-10-16T02:26:32.890Z,1013.65
2018-10-16T02:27:38.428Z,1013.66
2018-10-16T02:28:43.969Z,1013.71
2018-10-16T02:29:49.506Z,1013.69
2018-10-16T02:30:55.040Z,1013.69
2018-10-16T02:32:00.582Z,1013.67
2018-10-16T02:33:06.120Z,1013.71
2018-10-16T02:34:11.654Z,1013.73
2018-10-16T02:35:17.194Z,1013.71
2018-10-16T02:36:22.723Z,1013.75
2018-10-16T02:37:28.275Z,1013.75
2018-10-16T02:38:33.802Z,1013.73
2018-10-16T02:39:39.343Z,1013.70
2018-10-16T02:40:44.876Z,1013.72
2018-10-16T02:41:50.418Z,1013.68
2018-10-16T02:42:55.948Z,1013.71
2018-10-16T02:44:01.494Z,1013.70
2018-10-16T02:45:07.030Z,1013.66
2018-10-16T02:46:12.569Z,1013.64
2018-10-16T02:47:18.099Z,1013.65
2018-10-16T02:48:23.645Z,1013.67
2018-10-16T02:49:29.179Z,1013.68
2018-10-16T02:50:34.722Z,1013.65
2018-10-16T02:51:40.251Z,1013.72
2018-10-16T02:52:45.793Z,1013.71
2018-10-16T02:53:51.325Z,1013.73
2018-10-16T02:54:56.863Z,1013.75
2018-10-16T02:56:02.405Z,1013.72
2018-10-16T02:57:07.939Z,1013.71
2018-10-16T02:58:13.475Z,1013.73
2018-10-16T02:59:19.014Z,1013.71
2018-10-16T03:00:24.557Z,1013.72
2018-10-16T03:01:30.098Z,1013.74
2018-10-16T03:02:35.628Z,1013.75
2018-10-16T03:03:41.161Z,1013.71
2018-10-16T03:04:46.704Z,1013.78
2018-10-16T03:05:52.233Z,1013.75
2018-10-16T03:06:57.776Z,1013.72
2018-10-16T03:08:03.314Z,1013.74
2018-10-16T03:09:08.852Z,1013.71
2018-10-16T03:10:14.386Z,1013.74
2018-10-16T03:11:19.921Z,1013.72
2018-10-16T03:12:25.466Z,1013.76
2018-10-16T03:13:30.998Z,1013.73
2018-10-16T03:14:36.537Z,1013.77
2018-10-16T03:15:42.071Z,1013.73
2018-10-16T03:16:47.613Z,1013.74
2018-10-16T03:17:53.147Z,1013.75
2018-10-16T03:18:58.683Z,1013.76
2018-10-16T03:20:04.249Z,1013.77
2018-10-16T03:21:09.761Z,1013.79
2018-10-16T03:22:15.296Z,1013.78
2018-10-16T03:23:20.832Z,1013.78
2018-10-16T03:24:26.378Z,1013.80
2018-10-16T03:25:31.912Z,1013.81
2018-10-16T03:26:37.443Z,1013.80
2018-10-16T03:27:42.987Z,1013.79
2018-10-16T03:28:48.520Z,1013.79
2018-10-16T03:29:54.063Z,1013.78
2018-10-16T03:30:59.594Z,1013.79
2018-10-16T03:32:05.133Z,1013.78
2018-10-16T03:33:10.667Z,1013.77
2018-10-16T03:34:16.209Z,1013.75
2018-10-16T03:35:21.742Z,1013.78
2018-10-16T03:36:27.279Z,1013.78
2018-10-16T03:37:32.813Z,1013.80
2018-10-16T03:38:38.359Z,1013.85
2018-10-16T03:39:43.896Z,1013.82
2018-10-16T03:40:49.428Z,1013.84
2018-10-16T03:41:54.964Z,1013.86
2018-10-16T03:43:00.509Z,1013.88
2018-10-16T03:44:06.045Z,1013.84
2018-10-16T03:45:11.583Z,1013.82
2018-10-16T03:46:17.121Z,1013.88
2018-10-16T03:47:22.656Z,1013.81
2018-10-16T03:48:28.194Z,1013.87
2018-10-16T03:49:33.728Z,1013.87
2018-10-16T03:50:39.262Z,1013.85
2018-10-16T03:51:44.800Z,1013.83
2018-10-16T03:52:50.338Z,1013.85
2018-10-16T03:53:55.876Z,1013.86
2018-10-16T03:55:01.411Z,1013.86
2018-10-16T03:56:06.948Z,1013.90
2018-10-16T03:57:12.508Z,1013.88
2018-10-16T03:58:18.024Z,1013.86
2018-10-16T03:59:23.559Z,1013.89
2018-10-16T04:00:29.097Z,1013.88
2018-10-16T04:01:34.635Z,1013.89
2018-10-16T04:02:40.176Z,1013.91
2018-10-16T04:03:45.708Z,1013.93
2018-10-16T04:04:51.247Z,1013.92
2018-10-16T04:05:56.782Z,1013.97
2018-10-16T04:07:02.325Z,1013.94
2018-10-16T04:08:07.863Z,1013.96
2018-10-16T04:09:13.396Z,1014.01
2018-10-16T04:10:18.935Z,1014.00
2018-10-16T04:11:24.474Z,1014.00
2018-10-16T04:12:30.011Z,1014.03
2018-10-16T04:13:35.541Z,1014.04
2018-10-16T04:14:41.085Z,1014.03
2018-10-16T04:15:46.621Z,1014.05
2018-10-16T04:16:52.160Z,1014.06
2018-10-16T04:17:57.692Z,1014.00
2018-10-16T04:19:03.231Z,1013.98
2018-10-16T04:20:08.762Z,1013.98
2018-10-16T04:21:14.304Z,1013.97
2018-10-16T04:22:19.864Z,1013.99
2018-10-16T04:23:25.381Z,1013.94
2018-10-16T04:24:30.919Z,1013.95
2018-10-16T04:25:36.451Z,1013.98
2018-10-16T04:26:41.987Z,1013.94
2018-10-16T04:27:47.526Z,1013.97
2018-10-16T04:28:53.062Z,1013.94
2018-10-16T04:29:58.604Z,1013.95
2018-10-16T04:31:04.147Z,1013.89
2018-10-16T04:32:09.675Z,1013.92
2018-10-16T04:33:15.207Z,1013.91
2018-10-16T04:34:20.746Z,1013.90
2018-10-16T04:35:26.286Z,1013.87
2018-10-16T04:36:31.821Z,1013.92
2018-10-16T04:37:37.352Z,1013.91
2018-10-16T04:38:42.902Z,1013.91
2018-10-16T04:39:48.429Z,1013.92
2018-10-16T04:40:53.964Z,1013.90
2018-10-16T04:41:59.508Z,1013.94
2018-10-16T04:43:05.040Z,1013.91
2018-10-16T04:44:10.581Z,1013.94
2018-10-16T04:45:16.109Z,1013.92
2018-10-16T04:46:21.673Z,1013.95
2018-10-16T04:47:27.189Z,1013.92
2018-10-16T04:48:32.728Z,1013.89
2018-10-16T04:49:38.265Z,1013.90
2018-10-16T04:50:43.802Z,1013.92
2018-10-16T04:51:49.337Z,1013.90
2018-10-16T04:52:54.877Z,1013.91
2018-10-16T04:54:00.407Z,1013.91
2018-10-16T04:55:06.031Z,1013.94
2018-10-16T04:56:11.486Z,1013.91
2018-10-16T04:57:17.021Z,1013.91
2018-10-16T04:58:22.555Z,1013.91
2018-10-16T04:59:28.089Z,1013.93
2018-10-16T05:00:33.651Z,1013.91
2018-10-16T05:01:39.168Z,1013.94
2018-10-16T05:02:44.719Z,1013.95
2018-10-16T05:03:50.247Z,1013.95
2018-10-16T05:04:55.776Z,1013.95
2018-10-16T05:06:01.313Z,1013.95
2018-10-16T05:07:06.860Z,1013.95
2018-10-16T05:08:12.388Z,1013.91
2018-10-16T05:09:17.925Z,1013.91
2018-10-16T05:10:23.467Z,1013.93
2018-10-16T05:11:28.997Z,1013.94
2018-10-16T05:12:34.534Z,1013.98
2018-10-16T05:13:40.071Z,1013.96
2018-10-16T05:14:45.609Z,1013.98
2018-10-16T05:15:51.141Z,1013.95
2018-10-16T05:16:56.680Z,1013.98
2018-10-16T05:18:02.222Z,1013.95
2018-10-16T05:19:07.791Z,1014.02
2018-10-16T05:20:13.293Z,1013.98
2018-10-16T05:21:18.830Z,1014.02
2018-10-16T05:22:24.370Z,1014.04
2018-10-16T05:23:29.916Z,1014.01
2018-10-16T05:24:35.441Z,1014.06
2018-10-16T05:25:40.982Z,1014.08
2018-10-16T05:26:46.515Z,1014.11
2018-10-16T05:27:52.052Z,1014.14
2018-10-16T05:28:57.584Z,1014.19
2018-10-16T05:30:03.125Z,1014.23
2018-10-16T05:31:08.789Z,1014.26
2018-10-16T05:32:14.197Z,1014.34
2018-10-16T05:33:19.734Z,1014.31
2018-10-16T05:34:25.271Z,1014.33
2018-10-16T05:35:30.813Z,1014.33
2018-10-16T05:36:36.344Z,1014.36
2018-10-16T05:37:41.882Z,1014.32
2018-10-16T05:38:47.420Z,1014.38
2018-10-16T05:39:52.956Z,1014.38
2018-10-16T05:40:58.495Z,1014.39
2018-10-16T05:42:04.029Z,1014.40
2018-10-16T05:43:09.563Z,1014.41
2018-10-16T05:44:15.104Z,1014.40
2018-10-16T05:45:20.639Z,1014.43
2018-10-16T05:46:26.175Z,1014.38
2018-10-16T05:47:31.721Z,1014.41
2018-10-16T05:48:37.250Z,1014.39
2018-10-16T05:49:42.788Z,1014.43
2018-10-16T05:50:48.322Z,1014.44
2018-10-16T05:51:53.860Z,1014.45
2018-10-16T05:52:59.396Z,1014.43
2018-10-16T05:54:04.936Z,1014.45
2018-10-16T05:55:10.472Z,1014.45
2018-10-16T05:56:16.008Z,1014.44
2018-10-16T05:57:21.545Z,1014.43
2018-10-16T05:58:27.082Z,1014.45
2018-10-16T05:59:32.621Z,1014.41
2018-10-16T06:00:38.158Z,1014.44
2018-10-16T06:01:43.692Z,1014.44
2018-10-16T06:02:49.234Z,1014.43
2018-10-16T06:03:54.782Z,1014.48
2018-10-16T06:05:00.306Z,1014.47
2018-10-16T06:06:05.848Z,1014.49
2018-10-16T06:07:11.381Z,1014.51
2018-10-16T06:08:16.917Z,1014.54
2018-10-16T06:09:22.458Z,1014.53
2018-10-16T06:10:27.989Z,1014.55
2018-10-16T06:11:33.527Z,1014.55
2018-10-16T06:12:39.067Z,1014.55
2018-10-16T06:13:44.611Z,1014.60
2018-10-16T06:14:50.140Z,1014.62
2018-10-16T06:15:55.699Z,1014.61
2018-10-16T06:17:01.212Z,1014.62
2018-10-16T06:18:06.747Z,1014.58
2018-10-16T06:19:12.287Z,1014.61
2018-10-16T06:20:17.824Z,1014.65
2018-10-16T06:21:23.360Z,1014.66
2018-10-16T06:22:28.897Z,1014.68
2018-10-16T06:23:34.435Z,1014.69
2018-10-16T06:24:39.969Z,1014.74
2018-10-16T06:25:45.506Z,1014.79
2018-10-16T06:26:51.049Z,1014.79
2018-10-16T06:27:56.581Z,1014.83
2018-10-16T06:29:02.120Z,1014.83
2018-10-16T06:30:07.689Z,1014.87
2018-10-16T06:31:13.192Z,1014.92
2018-10-16T06:32:18.732Z,1014.95
2018-10-16T06:33:24.347Z,1014.97
2018-10-16T06:34:29.806Z,1014.94
2018-10-16T06:35:35.339Z,1014.99
2018-10-16T06:36:40.881Z,1015.01
2018-10-16T06:37:46.414Z,1015.01
2018-10-16T06:38:51.954Z,1015.02
2018-10-16T06:39:57.492Z,1015.04
2018-10-16T06:41:03.242Z,1015.04
2018-10-16T06:42:08.570Z,1015.04
2018-10-16T06:43:14.100Z,1015.05
2018-10-16T06:44:19.636Z,1015.09
2018-10-16T06:45:25.192Z,1015.08
2018-10-16T06:46:30.740Z,1015.09
2018-10-16T06:47:36.357Z,1015.12
2018-10-16T06:48:42.126Z,1015.12
2018-10-16T06:49:47.327Z,1015.10
2018-10-16T06:50:52.862Z,1015.08
2018-10-16T06:51:58.396Z,1015.08
2018-10-16T06:53:03.941Z,1015.09
2018-10-16T06:54:09.471Z,1015.11
2018-10-16T06:55:15.070Z,1015.10
2018-10-16T06:56:20.553Z,1015.11
2018-10-16T06:57:26.087Z,1015.12
2018-10-16T06:58:31.623Z,1015.13
2018-10-16T06:59:37.168Z,1015.11
2018-10-16T07:00:42.696Z,1015.14
2018-10-16T07:01:48.232Z,1015.20
2018-10-16T07:02:53.773Z,1015.21
2018-10-16T07:03:59.310Z,1015.19
2018-10-16T07:05:04.848Z,1015.19
2018-10-16T07:06:10.379Z,1015.15
2018-10-16T07:07:16.045Z,1015.19
2018-10-16T07:08:21.455Z,1015.20
2018-10-16T07:09:27.000Z,1015.24
2018-10-16T07:10:32.534Z,1015.21
2018-10-16T07:11:38.070Z,1015.24
2018-10-16T07:12:43.608Z,1015.23
2018-10-16T07:13:49.142Z,1015.25
2018-10-16T07:14:54.743Z,1015.22
2018-10-16T07:16:00.217Z,1015.28
2018-10-16T07:17:05.754Z,1015.30
2018-10-16T07:18:11.292Z,1015.31
2018-10-16T07:19:16.833Z,1015.31
2018-10-16T07:20:22.368Z,1015.39
2018-10-16T07:21:27.925Z,1015.38
2018-10-16T07:22:33.448Z,1015.33
2018-10-16T07:23:39.000Z,1015.35
2018-10-16T07:24:44.518Z,1015.39
2018-10-16T07:25:50.064Z,1015.38
2018-10-16T07:26:55.594Z,1015.34
2018-10-16T07:28:01.139Z,1015.32
2018-10-16T07:29:06.676Z,1015.38
2018-10-16T07:30:12.275Z,1015.37
2018-10-16T07:31:17.752Z,1015.36
2018-10-16T07:32:23.284Z,1015.35
2018-10-16T07:33:28.830Z,1015.36
2018-10-16T07:34:34.365Z,1015.34
2018-10-16T07:35:39.903Z,1015.39
2018-10-16T07:36:45.443Z,1015.41
2018-10-16T07:37:51.072Z,1015.44
2018-10-16T07:38:56.579Z,1015.47
2018-10-16T07:40:02.058Z,1015.51
2018-10-16T07:41:07.586Z,1015.46
2018-10-16T07:42:13.131Z,1015.46
2018-10-16T07:43:18.665Z,1015.46
2018-10-16T07:44:24.203Z,1015.47
2018-10-16T07:45:29.746Z,1015.41
2018-10-16T07:46:35.277Z,1015.45
2018-10-16T07:47:40.820Z,1015.50
2018-10-16T07:48:46.360Z,1015.55
2018-10-16T07:49:51.891Z,1015.51
2018-10-16T07:50:57.434Z,1015.51
2018-10-16T07:52:02.968Z,1015.55
2018-10-16T07:53:08.510Z,1015.57
2018-10-16T07:54:14.053Z,1015.60
2018-10-16T07:55:19.594Z,1015.59
2018-10-16T07:56:25.121Z,1015.60
2018-10-16T07:57:30.663Z,1015.60
2018-10-16T07:58:36.203Z,1015.64
2018-10-16T07:59:41.738Z,1015.65
2018-10-16T08:00:47.276Z,1015.68
2018-10-16T08:01:52.813Z,1015.70
2018-10-16T08:02:58.349Z,1015.73
2018-10-16T08:04:03.903Z,1015.67
2018-10-16T08:05:09.431Z,1015.69
2018-10-16T08:06:14.965Z,1015.64
2018-10-16T08:07:20.504Z,1015.65
2018-10-16T08:08:26.044Z,1015.66
2018-10-16T08:09:31.582Z,1015.65
2018-10-16T08:10:37.118Z,1015.69
2018-10-16T08:11:42.658Z,1015.68
2018-10-16T08:12:48.205Z,1015.67
2018-10-16T08:13:53.735Z,1015.64
2018-10-16T08:14:59.274Z,1015.63
2018-10-16T08:16:04.815Z,1015.59
2018-10-16T08:17:10.409Z,1015.58
2018-10-16T08:18:15.889Z,1015.61
2018-10-16T08:19:21.434Z,1015.63
2018-10-16T08:20:26.968Z,1015.64
2018-10-16T08:21:32.509Z,1015.69
2018-10-16T08:22:38.047Z,1015.65
2018-10-16T08:23:43.584Z,1015.61
2018-10-16T08:24:49.119Z,1015.59
2018-10-16T08:25:54.658Z,1015.60
2018-10-16T08:27:00.277Z,1015.63
2018-10-16T08:28:05.739Z,1015.58
2018-10-16T08:29:11.274Z,1015.61
2018-10-16T08:30:16.823Z,1015.59
2018-10-16T08:31:22.350Z,1015.60
2018-10-16T08:32:27.886Z,1015.57
2018-10-16T08:33:33.426Z,1015.59
2018-10-16T08:34:38.971Z,1015.58
2018-10-16T08:35:44.525Z,1015.53
2018-10-16T08:36:50.145Z,1015.54
2018-10-16T08:37:55.592Z,1015.51
2018-10-16T08:39:01.133Z,1015.48
2018-10-16T08:40:06.708Z,1015.51
2018-10-16T08:41:12.211Z,1015.49
2018-10-16T08:42:17.749Z,1015.48
2018-10-16T08:43:23.287Z,1015.49
2018-10-16T08:44:28.830Z,1015.52
2018-10-16T08:45:34.361Z,1015.51
2018-10-16T08:46:39.903Z,1015.55
2018-10-16T08:47:45.439Z,1015.53
2018-10-16T08:48:50.982Z,1015.54
2018-10-16T08:49:56.521Z,1015.53
2018-10-16T08:51:02.064Z,1015.57
2018-10-16T08:52:07.599Z,1015.57
2018-10-16T08:53:13.138Z,1015.60
2018-10-16T08:54:18.677Z,1015.64
2018-10-16T08:55:24.216Z,1015.64
2018-10-16T08:56:29.762Z,1015.64
2018-10-16T08:57:35.301Z,1015.61
2018-10-16T08:58:40.838Z,1015.64
2018-10-16T08:59:46.377Z,1015.61
2018-10-16T09:00:51.919Z,1015.61
2018-10-16T09:01:57.464Z,1015.62
2018-10-16T09:03:03.004Z,1015.61
2018-10-16T09:04:08.544Z,1015.64
2018-10-16T09:05:14.079Z,1015.65
2018-10-16T09:06:19.619Z,1015.60
2018-10-16T09:07:25.159Z,1015.63
2018-10-16T09:08:30.699Z,1015.63
2018-10-16T09:09:36.242Z,1015.69
2018-10-16T09:10:41.785Z,1015.66
2018-10-16T09:11:47.320Z,1015.69
2018-10-16T09:12:52.859Z,1015.71
2018-10-16T09:13:58.434Z,1015.70
2018-10-16T09:15:03.948Z,1015.70
2018-10-16T09:16:09.485Z,1015.70
2018-10-16T09:17:15.023Z,1015.64
2018-10-16T09:18:20.564Z,1015.66
2018-10-16T09:19:26.113Z,1015.63
2018-10-16T09:20:31.655Z,1015.63
2018-10-16T09:21:37.198Z,1015.66
2018-10-16T09:22:42.731Z,1015.68
2018-10-16T09:23:48.268Z,1015.67
2018-10-16T09:24:53.822Z,1015.63
2018-10-16T09:25:59.358Z,1015.71
2018-10-16T09:27:04.897Z,1015.70
2018-10-16T09:28:10.439Z,1015.72
2018-10-16T09:29:16.016Z,1015.71
2018-10-16T09:30:21.515Z,1015.73
2018-10-16T09:31:27.068Z,1015.71
2018-10-16T09:32:32.597Z,1015.75
2018-10-16T09:33:38.140Z,1015.73
2018-10-16T09:34:43.687Z,1015.71
2018-10-16T09:35:49.227Z,1015.75
2018-10-16T09:36:54.765Z,1015.78
2018-10-16T09:38:00.371Z,1015.76
2018-10-16T09:39:05.852Z,1015.77
2018-10-16T09:40:11.390Z,1015.75
2018-10-16T09:41:16.935Z,1015.79
2018-10-16T09:42:22.479Z,1015.82
2018-10-16T09:43:28.012Z,1015.83
2018-10-16T09:44:33.558Z,1015.81
2018-10-16T09:45:39.104Z,1015.84
2018-10-16T09:46:44.645Z,1015.84
2018-10-16T09:47:50.190Z,1015.81
2018-10-16T09:48:55.736Z,1015.86
2018-10-16T09:50:01.270Z,1015.85
2018-10-16T09:51:06.810Z,1015.78
2018-10-16T09:52:12.355Z,1015.80
2018-10-16T09:53:17.894Z,1015.73
2018-10-16T09:54:23.437Z,1015.75
2018-10-16T09:55:28.982Z,1015.77
2018-10-16T09:56:34.520Z,1015.76
2018-10-16T09:57:40.068Z,1015.73
2018-10-16T09:58:45.603Z,1015.76
2018-10-16T09:59:51.147Z,1015.78
2018-10-16T10:00:56.776Z,1015.76
2018-10-16T10:02:02.230Z,1015.76
2018-10-16T10:03:07.777Z,1015.73
2018-10-16T10:04:13.315Z,1015.74
2018-10-16T10:05:18.859Z,1015.75
2018-10-16T10:06:24.401Z,1015.78
2018-10-16T10:07:29.946Z,1015.83
2018-10-16T10:08:35.486Z,1015.81
2018-10-16T10:09:41.026Z,1015.77
2018-10-16T10:10:46.580Z,1015.82
2018-10-16T10:11:52.113Z,1015.86
2018-10-16T10:12:57.657Z,1015.85
2018-10-16T10:14:03.203Z,1015.88
2018-10-16T10:15:08.745Z,1015.86
2018-10-16T10:16:14.285Z,1015.84
2018-10-16T10:17:19.829Z,1015.84
2018-10-16T10:18:25.374Z,1015.81
2018-10-16T10:19:30.921Z,1015.81
2018-10-16T10:20:36.461Z,1015.80
2018-10-16T10:21:42.001Z,1015.78
2018-10-16T10:22:47.551Z,1015.76
2018-10-16T10:23:53.092Z,1015.74
2018-10-16T10:24:58.678Z,1015.77
2018-10-16T10:26:04.180Z,1015.74
2018-10-16T10:27:09.719Z,1015.73
2018-10-16T10:28:15.263Z,1015.73
2018-10-16T10:29:20.804Z,1015.74
2018-10-16T10:30:26.346Z,1015.70
2018-10-16T10:31:31.894Z,1015.65
2018-10-16T10:32:37.436Z,1015.68
2018-10-16T10:33:42.977Z,1015.67
2018-10-16T10:34:48.524Z,1015.69
2018-10-16T10:35:54.070Z,1015.67
2018-10-16T10:36:59.615Z,1015.68
2018-10-16T10:38:05.155Z,1015.67
2018-10-16T10:39:10.696Z,1015.67
2018-10-16T10:40:16.238Z,1015.67
2018-10-16T10:41:21.785Z,1015.69
2018-10-16T10:42:27.337Z,1015.65
2018-10-16T10:43:32.869Z,1015.67
2018-10-16T10:44:38.419Z,1015.65
2018-10-16T10:45:43.960Z,1015.66
2018-10-16T10:46:49.499Z,1015.69
2018-10-16T10:47:55.052Z,1015.70
2018-10-16T10:49:00.587Z,1015.72
2018-10-16T10:50:06.292Z,1015.70
2018-10-16T10:51:11.868Z,1015.71
2018-10-16T10:52:17.227Z,1015.74
2018-10-16T10:53:22.773Z,1015.75
2018-10-16T10:54:28.313Z,1015.72
2018-10-16T10:55:33.852Z,1015.71
2018-10-16T10:56:39.407Z,1015.69
2018-10-16T10:57:44.942Z,1015.67
2018-10-16T10:58:50.486Z,1015.69
2018-10-16T10:59:56.028Z,1015.70
2018-10-16T11:01:01.574Z,1015.70
2018-10-16T11:02:07.114Z,1015.70
2018-10-16T11:03:12.702Z,1015.67
2018-10-16T11:04:18.205Z,1015.66
2018-10-16T11:05:23.752Z,1015.71
2018-10-16T11:06:29.297Z,1015.68
2018-10-16T11:07:34.843Z,1015.68
2018-10-16T11:08:40.387Z,1015.66
2018-10-16T11:09:45.931Z,1015.69
2018-10-16T11:10:51.476Z,1015.67
2018-10-16T11:11:57.022Z,1015.65
2018-10-16T11:13:02.562Z,1015.68
2018-10-16T11:14:08.105Z,1015.67
2018-10-16T11:15:13.714Z,1015.68
2018-10-16T11:16:19.195Z,1015.68
2018-10-16T11:17:24.741Z,1015.68
2018-10-16T11:18:30.288Z,1015.68
2018-10-16T11:19:35.833Z,1015.66
2018-10-16T11:20:41.372Z,1015.64
2018-10-16T11:21:46.913Z,1015.67
2018-10-16T11:22:52.459Z,1015.70
2018-10-16T11:23:58.002Z,1015.68
2018-10-16T11:25:03.554Z,1015.72
2018-10-16T11:26:09.092Z,1015.68
2018-10-16T11:27:14.768Z,1015.71
2018-10-16T11:28:20.179Z,1015.70
2018-10-16T11:29:25.728Z,1015.70
2018-10-16T11:30:31.273Z,1015.69
2018-10-16T11:31:36.816Z,1015.73
2018-10-16T11:32:42.364Z,1015.66
2018-10-16T11:33:47.905Z,1015.69
2018-10-16T11:34:53.449Z,1015.68
2018-10-16T11:35:58.995Z,1015.73
2018-10-16T11:37:04.549Z,1015.72
2018-10-16T11:38:10.081Z,1015.73
2018-10-16T11:39:15.644Z,1015.74
2018-10-16T11:40:21.174Z,1015.74
2018-10-16T11:41:26.713Z,1015.76
2018-10-16T11:42:32.268Z,1015.73
2018-10-16T11:43:37.805Z,1015.80
2018-10-16T11:44:44.313Z,1015.80
2018-10-16T11:45:49.036Z,1015.81
2018-10-16T11:46:54.438Z,1015.82
2018-10-16T11:47:59.987Z,1015.83
2018-10-16T11:49:05.528Z,1015.80
2018-10-16T11:50:11.136Z,1015.79
2018-10-16T11:51:16.621Z,1015.78
2018-10-16T11:52:22.263Z,1015.80
2018-10-16T11:53:27.704Z,1015.81
2018-10-16T11:54:33.254Z,1015.81
2018-10-16T11:55:38.793Z,1015.81
2018-10-16T11:56:44.342Z,1015.78
2018-10-16T11:57:49.888Z,1015.80
2018-10-16T11:58:55.433Z,1015.78
2018-10-16T12:00:00.977Z,1015.82
2018-10-16T12:01:06.517Z,1015.85
2018-10-16T12:02:12.206Z,1015.83
2018-10-16T12:03:17.612Z,1015.81
2018-10-16T12:04:23.159Z,1015.77
2018-10-16T12:05:28.697Z,1015.78
2018-10-16T12:06:34.240Z,1015.78
2018-10-16T12:07:39.789Z,1015.81
2018-10-16T12:08:45.332Z,1015.77
2018-10-16T12:09:50.879Z,1015.79
2018-10-16T12:10:56.425Z,1015.79
2018-10-16T12:12:01.965Z,1015.80
2018-10-16T12:13:07.643Z,1015.77
2018-10-16T12:14:13.112Z,1015.78
2018-10-16T12:15:18.604Z,1015.80
2018-10-16T12:16:24.149Z,1015.80
2018-10-16T12:17:29.686Z,1015.80
2018-10-16T12:18:35.236Z,1015.81
2018-10-16T12:19:40.819Z,1015.83
2018-10-16T12:20:46.331Z,1015.84
2018-10-16T12:21:51.868Z,1015.75
2018-10-16T12:22:57.419Z,1015.78
2018-10-16T12:24:03.024Z,1015.78
2018-10-16T12:25:08.593Z,1015.77
2018-10-16T12:26:14.048Z,1015.78
2018-10-16T12:27:19.590Z,1015.78
2018-10-16T12:28:25.136Z,1015.77
2018-10-16T12:29:30.682Z,1015.75
2018-10-16T12:30:36.230Z,1015.75
2018-10-16T12:31:41.774Z,1015.75
2018-10-16T12:32:47.319Z,1015.75
2018-10-16T12:33:52.868Z,1015.74
2018-10-16T12:34:58.410Z,1015.71
2018-10-16T12:36:03.956Z,1015.71
2018-10-16T12:37:09.573Z,1015.71
2018-10-16T12:38:15.060Z,1015.70
2018-10-16T12:39:20.587Z,1015.68
2018-10-16T12:40:26.131Z,1015.68
2018-10-16T12:41:31.680Z,1015.66
2018-10-16T12:42:37.266Z,1015.67
2018-10-16T12:43:42.961Z,1015.66
2018-10-16T12:44:48.313Z,1015.70
2018-10-16T12:45:53.858Z,1015.63
2018-10-16T12:46:59.461Z,1015.64
2018-10-16T12:48:05.005Z,1015.64
2018-10-16T12:49:10.489Z,1015.63
2018-10-16T12:50:16.105Z,1015.66
2018-10-16T12:51:21.581Z,1015.67
2018-10-16T12:52:27.128Z,1015.66
2018-10-16T12:53:32.664Z,1015.71
2018-10-16T12:54:38.215Z,1015.65
2018-10-16T12:55:43.765Z,1015.71
2018-10-16T12:56:49.381Z,1015.73
2018-10-16T12:57:54.845Z,1015.72
2018-10-16T12:59:00.422Z,1015.73
2018-10-16T13:00:06.004Z,1015.72
2018-10-16T13:01:11.488Z,1015.77
2018-10-16T13:02:17.031Z,1015.78
2018-10-16T13:03:22.597Z,1015.72
2018-10-16T13:04:28.117Z,1015.76
2018-10-16T13:05:33.664Z,1015.78
2018-10-16T13:06:39.203Z,1015.75
2018-10-16T13:07:44.749Z,1015.80
2018-10-16T13:08:50.326Z,1015.79
2018-10-16T13:09:55.839Z,1015.84
2018-10-16T13:11:01.393Z,1015.83
2018-10-16T13:12:06.932Z,1015.84